EFKE/KEM METAR and TAF weather

Enter ICAO airport designator
Station Type Date Time Source
EFKE METAR 2020/09/22 08:20 UTC NOAA

EFKE 220820Z AUTO 27015G28KT 9999 NCD 09/M00 Q0994


Station Type Date Time Source
EFKE Decoded METAR 2020/09/22 08:20 UTC NOAA

Kemi, Finland (EFKE) 65-47N 024-35E
Sep 22, 2020 - 04:20 AM EDT / 2020.09.22 0820 UTC
Wind: from the W (270 degrees) at 17 MPH (15 KT) gusting to 32 MPH (28 KT):0
Visibility: greater than 7 mile(s):0
Temperature: 48 F (9 C)
Dew Point: 32 F (0 C)
Relative Humidity: 53%
Pressure (altimeter): 29.35 in. Hg (0994 hPa)
ob: EFKE 220820Z AUTO 27015G28KT 9999 NCD 09/M00 Q0994
cycle: 8

Station Type Date Time Source
EFKE TAF 2015/01/12 15:42 UTC NOAA

TAF EFKE 121433Z 1215/1312 03006KT CAVOK
BECMG 1300/1302 9999 BKN015
FM130400 07008KT 9999 SCT014 BKN018
TEMPO 1304/1312 7000 -SN

Example: see airport list